KIDAKTWF

Guest
Details From KIDA - KIDA
To KTWF - JOSLIN FLD MAGIC VALLEY RGNL
Flight Number -
Tags generated
Created
Modified
Stats Distance 123 nm / 228 km
Max Altitude 4,400 ft / 1,341 m
Waypoints 3
Social Downloads 1
Likes 0
Share VATSIM

Download

Looking for another format? Having issues loading an existing format? Contact us
Advertisement - Login to hide

Notes

Basic altitude profile: - Ascent Rate: 2500ft/min - Ascent Speed: 250kts - Cruise Altitude: 35000ft - Cruise Speed: 420kts - Descent Rate: 1500ft/min - Descent Speed: 250kts Options: - Use NATs: yes - Use PACOTS: yes - Use low airways: yes - Use high airways: no

Route

KIDA HAZZL KTWF

ID Type Via Altitude Latitude Longitude Leg Dist Tot Dist Heading (true) Name
O KIDA APT - 0 ft / 0 m 43.51464˚ -112.06831˚ - 0 nm - KIDA
HAZZL FIX - 4,400 ft / 1,341 m 42.64217˚ -114.07408˚ 102 nm 102 nm 240° / 239° -
O KTWF APT - 0 ft / 0 m 42.48250˚ -114.48828˚ 20 nm 123 nm 243° / 242° JOSLIN FLD MAGIC VALLEY RGNL

Altitude Profile

Advertisement - Login to hide

KIDA

Details ICAO KIDA (IDA)
Name KIDA
Region United States
Timezone America/Boise (UTC-7.0)
Stats Elevation 4,744 ft / 1,446 m (AMSL)
Location 43.514641° -112.068307°
Runways 2
Magnetic Variation 11.926° E

METAR

KIDA 130453Z AUTO 24006KT 6SM HZ FEW120 M06/M09 A3041 RMK AO2 SLP355 T10611089

Decode

TAF

TAF KIDA 122320Z 1300/1324 VRB05KT P6SM OVC200 FM130800 03004KT 5SM BR SCT002 OVC150 FM131800 VRB05KT P6SM OVC100

Decode

Departure Runways

ID Width Length Bearing (true) Bearing (mag) Surface Threshold Offset Overrun Length
17 150 ft / 46 m 4,054 ft / 1,236 m 1.91° 349.98° Asphalt 0 ft / 0 m 0 ft / 0 m
2 150 ft / 46 m 8,997 ft / 2,742 m 37.91° 25.98° Asphalt 0 ft / 0 m 0 ft / 0 m
20 150 ft / 46 m 8,997 ft / 2,742 m 217.92° 205.99° Asphalt 0 ft / 0 m 0 ft / 0 m
35 150 ft / 46 m 4,054 ft / 1,236 m 181.91° 169.98° Asphalt 0 ft / 0 m 0 ft / 0 m

KTWF

Details ICAO KTWF (TWF)
Name JOSLIN FLD MAGIC VALLEY RGNL
Region United States
Timezone America/Boise (UTC-7.0)
Stats Elevation 4,151 ft / 1,265 m (AMSL)
Location 42.482500° -114.488279°
Runways 2
Magnetic Variation 12.613° E

METAR

KTWF 130453Z AUTO 16003KT 1/4SM FZFG VV002 M06/M08 A3045 RMK AO2 SLP339 T10611078

Decode

TAF

KTWF 122321Z 1300/1324 VRB06KT 1/4SM FZFG VV002

Decode

Destination Runways

ID Width Length Bearing (true) Bearing (mag) Surface Threshold Offset Overrun Length
07 150 ft / 46 m 8,680 ft / 2,646 m 91.30° 78.69° Asphalt 0 ft / 0 m 0 ft / 0 m
12 75 ft / 23 m 3,221 ft / 982 m 136.37° 123.76° Asphalt 0 ft / 0 m 0 ft / 0 m
25 150 ft / 46 m 8,680 ft / 2,646 m 271.32° 258.71° Asphalt 0 ft / 0 m 0 ft / 0 m
30 75 ft / 23 m 3,221 ft / 982 m 316.38° 303.77° Asphalt 0 ft / 0 m 0 ft / 0 m

Approach Navaids

Runway Type Ident Frequency Range Bearing (true) Bearing (mag) Slope Elevation
25 Localiser ITWF 108.30 MHz 18 nm / 33 km 271.29° 258.68° - 4,151 ft / 1,265 m (AMSL)
25 Glidescope ITWF 108.30 MHz 10 nm / 19 km 271.31° 258.70° 3.00° 4,150 ft / 1,265 m (AMSL)